New link in the top of page "IRC Chat".
Register | Login
Views: 90988720
Main | Memberlist | Active users | Calendar | Last Posts | IRC Chat | Online users
Ranks | FAQ | XPW | Stats | Color Chart | Photo album
10-31-20 11:23 AM
Posts by Rogue on the board: (11448 posts found)
Post id Post# Posted on Thread
#67590 961 01-11-06 02:52 PM #6498 - Potty Time Elmo asks kids, "Who wants to die?"
#67588 960 01-11-06 02:46 PM #6513 - Clerks 2 teaser trailer hit the web yesterday
#67534 959 01-11-06 03:13 AM #6517 - Unleashed
#67510 958 01-11-06 01:48 AM #6517 - Unleashed
#67493 957 01-11-06 12:55 AM #6510 - (restricted)
#67489 956 01-11-06 12:40 AM #6515 - Happy happy biiiiirthday, ~|Kyo|~
#67465 955 01-10-06 10:18 PM #6506 - This made me laugh a bit
#67460 954 01-10-06 10:08 PM #6515 - Happy happy biiiiirthday, ~|Kyo|~
#67458 953 01-10-06 09:23 PM #6514 - Pirates of the Caribbean: Dead Man's Chest
#67456 952 01-10-06 09:04 PM #6513 - Clerks 2 teaser trailer hit the web yesterday
#67455 951 01-10-06 08:53 PM #6512 - 3 used condoms and your daughter
#67453 950 01-10-06 08:47 PM #6498 - Potty Time Elmo asks kids, "Who wants to die?"
#67452 949 01-10-06 08:45 PM #6510 - (restricted)
#67449 948 01-10-06 08:36 PM #6510 - (restricted)
#67447 947 01-10-06 08:30 PM #6510 - (restricted)
#67445 946 01-10-06 08:27 PM #6506 - This made me laugh a bit
#67441 945 01-10-06 08:21 PM #6510 - (restricted)
#67433 944 01-10-06 08:06 PM #6508 - Retarded Animal Babies ( A poor attempt to copying happy tree friends )
#67427 943 01-10-06 07:40 PM #6508 - Retarded Animal Babies ( A poor attempt to copying happy tree friends )
#67425 942 01-10-06 07:34 PM #6508 - Retarded Animal Babies ( A poor attempt to copying happy tree friends )
#67399 941 01-10-06 01:34 AM #6499 - Digging a hole will get you where?
#67398 940 01-10-06 01:30 AM #6496 - Postage stamps raised another 2 cents
#67301 938 01-09-06 05:05 AM #6498 - Potty Time Elmo asks kids, "Who wants to die?"
#67293 937 01-09-06 01:26 AM #6498 - Potty Time Elmo asks kids, "Who wants to die?"
#67292 936 01-09-06 01:00 AM #6497 - Sideways bike
#67291 935 01-09-06 12:41 AM #6496 - Postage stamps raised another 2 cents
#67290 934 01-09-06 12:31 AM #6495 - Fun with pudding. WTF?!
#67276 933 01-08-06 08:03 PM #6493 - "Ranma Soutome"
#67257 932 01-08-06 03:18 PM #6460 - Did Jesus exist? Court to decide.
#67224 931 01-07-06 11:53 PM #6458 - Apocalyptica
#67223 930 01-07-06 11:34 PM #6460 - Did Jesus exist? Court to decide.
#67220 929 01-07-06 11:12 PM #6485 - Embarassing Secrets
#67149 928 01-07-06 03:02 AM #6470 - Dating Strengths and Weaknesses
#67147 927 01-07-06 02:34 AM #6478 - Fap fap fap...
#67137 926 01-06-06 10:21 PM #6471 - (restricted)
#67134 925 01-06-06 10:13 PM #6477 - Anyone interested in a salvaged Ghia?
#67114 924 01-06-06 05:25 PM #6477 - Anyone interested in a salvaged Ghia?
#67111 923 01-06-06 04:10 PM #6475 - The Worlds Shortest Personality Test
#67107 922 01-06-06 03:16 PM #5224 - They find me (NOT safe for work/children/parents/school!)
#67070 921 01-05-06 08:26 PM #6425 - The Puberty Pals: What the Heck is Happening to my Genitals?!
#67044 920 01-05-06 03:27 PM #6471 - (restricted)
#66959 919 01-04-06 07:26 PM #6460 - Did Jesus exist? Court to decide.
#66774 918 01-02-06 04:15 PM #6428 - 31 Reasons Chuck Norris is Better Than You
#66716 917 01-01-06 07:23 PM #6413 - Do I have too many Unicorns?
#66715 916 01-01-06 07:15 PM #6417 - Male or female?
#66705 914 01-01-06 03:35 PM #6428 - 31 Reasons Chuck Norris is Better Than You
#66672 913 12-31-05 02:24 PM #6425 - The Puberty Pals: What the Heck is Happening to my Genitals?!
#66666 912 12-31-05 05:38 AM #6405 - Quiz: What form of self-multilization are you? (Warning: for Mature)
#66665 911 12-31-05 05:30 AM #5806 - All Time Favorit Band
#66645 910 12-31-05 12:39 AM #6416 - What do you think of this video?
Pages: 1 2 3 4 5 6 7 8 9 10 11 12 13 14 15 16 17 18 19 20 21 22 23 24 25 26 27 28 29 30 31 32 33 34 35 36 37 38 39 40 41 42 43 44 45 46 47 48 49 50 51 52 53 54 55 56 57 58 59 60 61 62 63 64 65 66 67 68 69 70 71 72 73 74 75 76 77 78 79 80 81 82 83 84 85 86 87 88 89 90 91 92 93 94 95 96 97 98 99 100 101 102 103 104 105 106 107 108 109 110 111 112 113 114 115 116 117 118 119 120 121 122 123 124 125 126 127 128 129 130 131 132 133 134 135 136 137 138 139 140 141 142 143 144 145 146 147 148 149 150 151 152 153 154 155 156 157 158 159 160 161 162 163 164 165 166 167 168 169 170 171 172 173 174 175 176 177 178 179 180 181 182 183 184 185 186 187 188 189 190 191 192 193 194 195 196 197 198 199 200 201 202 203 204 205 206 207 208 209 210 211 212 213 214 215 216 217 218 219 220 221 222 223 224 225 226 227 228 229



xeogaming.org

AcmlmBoard 1.92++ r4 Baseline
?2000-2013 Acmlm, Emuz, Blades, Xkeeper, DarkSlaya*, Lord Alexandor*
*Unofficial Updates
Page rendered in 0.330 seconds.
0.052